Patterson, Virginia
Current Conditions -  °F | °C
As of 2:55 PM on Sunday 23 Nov 2014 (Local Time) from KJFZ Reporting Station
Drizzle Drizzle  
Wind Chill: 55°   Ceiling: 9000
Heat Index: 55°   Visibility: 10mi
Dew Point: 48°   Wind: 13mph
Humidity: 78%   Direction: 140°SE
Pressure: 29.89"   Gusts: 24mph
Location:  37.2148°N, 81.9825°W
Report Text: KJFZ 231955Z AUTO 14011G21KT 10SM DZ SCT018 SCT029 OVC090 13/09 A2989 RMK AO2 P0001 T01250088
Loading
Personal Weather Stations






























Interactive Weather Map New forecast layout! Learn more

10-Day Weather Forecast

Advertisements
Track Severe Weather on mobile